sensor_id;sensor_type;location;lat;lon;timestamp;P1;durP1;ratioP1;P2;durP2;ratioP2
70985;SDS011;58645;43.068;25.610;2023-04-24T00:00:10;15.13;;;10.57;;
70985;SDS011;58645;43.068;25.610;2023-04-24T00:02:43;16.33;;;10.13;;
70985;SDS011;58645;43.068;25.610;2023-04-24T00:05:16;14.48;;;8.55;;
70985;SDS011;58645;43.068;25.610;2023-04-24T00:10:08;21.92;;;12.90;;
70985;SDS011;58645;43.068;25.610;2023-04-24T00:12:35;32.90;;;18.75;;
70985;SDS011;58645;43.068;25.610;2023-04-24T00:15:01;31.98;;;17.95;;
70985;SDS011;58645;43.068;25.610;2023-04-24T00:17:27;29.25;;;18.52;;
70985;SDS011;58645;43.068;25.610;2023-04-24T00:19:53;16.45;;;11.35;;
70985;SDS011;58645;43.068;25.610;2023-04-24T00:22:26;17.05;;;10.50;;
70985;SDS011;58645;43.068;25.610;2023-04-24T00:24:53;17.83;;;11.90;;
70985;SDS011;58645;43.068;25.610;2023-04-24T00:27:19;14.95;;;9.30;;
70985;SDS011;58645;43.068;25.610;2023-04-24T00:29:45;18.33;;;9.73;;
70985;SDS011;58645;43.068;25.610;2023-04-24T00:32:11;12.93;;;10.38;;
70985;SDS011;58645;43.068;25.610;2023-04-24T00:34:37;17.60;;;12.93;;
70985;SDS011;58645;43.068;25.610;2023-04-24T00:37:03;15.73;;;10.45;;
70985;SDS011;58645;43.068;25.610;2023-04-24T00:39:29;20.33;;;12.38;;
70985;SDS011;58645;43.068;25.610;2023-04-24T00:41:54;15.77;;;10.23;;
70985;SDS011;58645;43.068;25.610;2023-04-24T00:44:21;13.55;;;9.50;;
70985;SDS011;58645;43.068;25.610;2023-04-24T00:46:47;14.43;;;8.70;;
70985;SDS011;58645;43.068;25.610;2023-04-24T00:49:23;20.73;;;15.02;;
70985;SDS011;58645;43.068;25.610;2023-04-24T00:51:49;10.63;;;9.02;;
70985;SDS011;58645;43.068;25.610;2023-04-24T00:54:16;22.25;;;12.80;;
70985;SDS011;58645;43.068;25.610;2023-04-24T00:56:42;16.75;;;11.98;;
70985;SDS011;58645;43.068;25.610;2023-04-24T00:59:10;21.00;;;12.45;;
70985;SDS011;58645;43.068;25.610;2023-04-24T01:01:37;21.83;;;12.93;;
70985;SDS011;58645;43.068;25.610;2023-04-24T01:04:07;20.73;;;13.48;;
70985;SDS011;58645;43.068;25.610;2023-04-24T01:06:35;30.90;;;19.65;;
70985;SDS011;58645;43.068;25.610;2023-04-24T01:09:07;44.58;;;27.08;;
70985;SDS011;58645;43.068;25.610;2023-04-24T01:11:34;63.45;;;36.20;;
70985;SDS011;58645;43.068;25.610;2023-04-24T01:13:59;49.28;;;29.83;;
70985;SDS011;58645;43.068;25.610;2023-04-24T01:18:51;28.23;;;15.68;;
70985;SDS011;58645;43.068;25.610;2023-04-24T01:21:17;24.02;;;14.10;;
70985;SDS011;58645;43.068;25.610;2023-04-24T01:23:45;15.10;;;10.85;;
70985;SDS011;58645;43.068;25.610;2023-04-24T01:26:11;19.38;;;11.30;;
70985;SDS011;58645;43.068;25.610;2023-04-24T01:28:38;15.63;;;8.63;;
70985;SDS011;58645;43.068;25.610;2023-04-24T01:31:04;17.45;;;10.68;;
70985;SDS011;58645;43.068;25.610;2023-04-24T01:33:30;24.17;;;14.30;;
70985;SDS011;58645;43.068;25.610;2023-04-24T01:35:57;15.60;;;9.70;;
70985;SDS011;58645;43.068;25.610;2023-04-24T01:38:22;15.30;;;8.02;;
70985;SDS011;58645;43.068;25.610;2023-04-24T01:40:49;11.13;;;8.23;;
70985;SDS011;58645;43.068;25.610;2023-04-24T01:43:16;12.07;;;7.25;;
70985;SDS011;58645;43.068;25.610;2023-04-24T01:45:42;9.80;;;5.50;;
70985;SDS011;58645;43.068;25.610;2023-04-24T01:48:07;9.52;;;4.43;;
70985;SDS011;58645;43.068;25.610;2023-04-24T01:50:33;9.82;;;5.35;;
70985;SDS011;58645;43.068;25.610;2023-04-24T01:52:59;7.55;;;5.57;;
70985;SDS011;58645;43.068;25.610;2023-04-24T01:55:25;6.55;;;3.80;;
70985;SDS011;58645;43.068;25.610;2023-04-24T01:57:52;7.10;;;3.50;;
70985;SDS011;58645;43.068;25.610;2023-04-24T02:00:19;8.25;;;4.72;;
70985;SDS011;58645;43.068;25.610;2023-04-24T02:02:45;5.97;;;3.95;;
70985;SDS011;58645;43.068;25.610;2023-04-24T02:05:10;7.07;;;4.53;;
70985;SDS011;58645;43.068;25.610;2023-04-24T02:07:36;8.93;;;4.18;;
70985;SDS011;58645;43.068;25.610;2023-04-24T02:10:02;12.45;;;7.20;;
70985;SDS011;58645;43.068;25.610;2023-04-24T02:12:29;6.93;;;4.38;;
70985;SDS011;58645;43.068;25.610;2023-04-24T02:14:55;9.70;;;4.25;;
70985;SDS011;58645;43.068;25.610;2023-04-24T02:17:21;10.90;;;4.30;;
70985;SDS011;58645;43.068;25.610;2023-04-24T02:19:47;6.68;;;3.97;;
70985;SDS011;58645;43.068;25.610;2023-04-24T02:22:13;9.13;;;4.88;;
70985;SDS011;58645;43.068;25.610;2023-04-24T02:24:39;5.93;;;4.00;;
70985;SDS011;58645;43.068;25.610;2023-04-24T02:27:05;6.03;;;3.78;;
70985;SDS011;58645;43.068;25.610;2023-04-24T02:29:31;6.72;;;4.20;;
70985;SDS011;58645;43.068;25.610;2023-04-24T02:31:57;7.85;;;4.07;;
70985;SDS011;58645;43.068;25.610;2023-04-24T02:34:23;8.38;;;3.75;;
70985;SDS011;58645;43.068;25.610;2023-04-24T02:36:48;15.43;;;7.82;;
70985;SDS011;58645;43.068;25.610;2023-04-24T02:39:14;11.50;;;7.28;;
70985;SDS011;58645;43.068;25.610;2023-04-24T02:41:43;10.48;;;5.32;;
70985;SDS011;58645;43.068;25.610;2023-04-24T02:44:09;6.97;;;4.97;;
70985;SDS011;58645;43.068;25.610;2023-04-24T02:46:35;14.68;;;8.70;;
70985;SDS011;58645;43.068;25.610;2023-04-24T02:49:01;10.75;;;6.38;;
70985;SDS011;58645;43.068;25.610;2023-04-24T02:51:27;14.25;;;7.50;;
70985;SDS011;58645;43.068;25.610;2023-04-24T02:53:53;7.05;;;4.38;;
70985;SDS011;58645;43.068;25.610;2023-04-24T02:56:19;6.13;;;4.50;;
70985;SDS011;58645;43.068;25.610;2023-04-24T02:58:45;4.90;;;3.50;;
70985;SDS011;58645;43.068;25.610;2023-04-24T03:01:11;6.65;;;4.22;;
70985;SDS011;58645;43.068;25.610;2023-04-24T03:03:37;7.25;;;4.03;;
70985;SDS011;58645;43.068;25.610;2023-04-24T03:06:04;6.63;;;4.00;;
70985;SDS011;58645;43.068;25.610;2023-04-24T03:08:31;5.45;;;3.83;;
70985;SDS011;58645;43.068;25.610;2023-04-24T03:10:57;10.23;;;5.30;;
70985;SDS011;58645;43.068;25.610;2023-04-24T03:13:23;8.88;;;4.75;;
70985;SDS011;58645;43.068;25.610;2023-04-24T03:15:49;6.85;;;4.00;;
70985;SDS011;58645;43.068;25.610;2023-04-24T03:18:15;7.13;;;4.00;;
70985;SDS011;58645;43.068;25.610;2023-04-24T03:20:41;7.43;;;5.05;;
70985;SDS011;58645;43.068;25.610;2023-04-24T03:23:06;11.48;;;5.97;;
70985;SDS011;58645;43.068;25.610;2023-04-24T03:25:32;18.75;;;11.25;;
70985;SDS011;58645;43.068;25.610;2023-04-24T03:27:58;25.88;;;16.45;;
70985;SDS011;58645;43.068;25.610;2023-04-24T03:30:24;25.83;;;16.77;;
70985;SDS011;58645;43.068;25.610;2023-04-24T03:32:49;34.28;;;18.58;;
70985;SDS011;58645;43.068;25.610;2023-04-24T03:35:15;28.05;;;15.05;;
70985;SDS011;58645;43.068;25.610;2023-04-24T03:37:41;21.92;;;13.40;;
70985;SDS011;58645;43.068;25.610;2023-04-24T03:40:07;16.35;;;10.07;;
70985;SDS011;58645;43.068;25.610;2023-04-24T03:42:33;11.52;;;6.53;;
70985;SDS011;58645;43.068;25.610;2023-04-24T03:44:59;17.95;;;10.07;;
70985;SDS011;58645;43.068;25.610;2023-04-24T03:47:25;39.63;;;24.60;;
70985;SDS011;58645;43.068;25.610;2023-04-24T03:49:51;21.30;;;13.38;;
70985;SDS011;58645;43.068;25.610;2023-04-24T03:52:17;15.52;;;9.93;;
70985;SDS011;58645;43.068;25.610;2023-04-24T03:54:43;12.77;;;7.65;;
70985;SDS011;58645;43.068;25.610;2023-04-24T03:57:08;15.38;;;9.60;;
70985;SDS011;58645;43.068;25.610;2023-04-24T03:59:34;8.90;;;5.82;;
70985;SDS011;58645;43.068;25.610;2023-04-24T04:02:00;7.90;;;4.90;;
70985;SDS011;58645;43.068;25.610;2023-04-24T04:04:27;9.30;;;5.00;;
70985;SDS011;58645;43.068;25.610;2023-04-24T04:06:53;8.23;;;3.92;;
70985;SDS011;58645;43.068;25.610;2023-04-24T04:09:18;9.80;;;5.40;;
70985;SDS011;58645;43.068;25.610;2023-04-24T04:11:44;8.07;;;4.88;;
70985;SDS011;58645;43.068;25.610;2023-04-24T04:14:10;8.73;;;5.25;;
70985;SDS011;58645;43.068;25.610;2023-04-24T04:16:36;19.65;;;11.27;;
70985;SDS011;58645;43.068;25.610;2023-04-24T04:19:02;20.48;;;13.60;;
70985;SDS011;58645;43.068;25.610;2023-04-24T04:21:28;22.92;;;14.48;;
70985;SDS011;58645;43.068;25.610;2023-04-24T04:23:55;17.20;;;9.52;;
70985;SDS011;58645;43.068;25.610;2023-04-24T04:26:21;17.65;;;8.70;;
70985;SDS011;58645;43.068;25.610;2023-04-24T04:28:50;12.48;;;5.32;;
70985;SDS011;58645;43.068;25.610;2023-04-24T04:31:19;9.77;;;5.13;;
70985;SDS011;58645;43.068;25.610;2023-04-24T04:33:46;11.70;;;5.68;;
70985;SDS011;58645;43.068;25.610;2023-04-24T04:36:11;13.18;;;6.25;;
70985;SDS011;58645;43.068;25.610;2023-04-24T04:38:37;14.93;;;8.63;;
70985;SDS011;58645;43.068;25.610;2023-04-24T04:41:03;15.25;;;7.75;;
70985;SDS011;58645;43.068;25.610;2023-04-24T04:43:29;14.65;;;9.05;;
70985;SDS011;58645;43.068;25.610;2023-04-24T04:45:57;18.02;;;13.05;;
70985;SDS011;58645;43.068;25.610;2023-04-24T04:48:23;22.95;;;13.57;;
70985;SDS011;58645;43.068;25.610;2023-04-24T04:50:52;27.75;;;15.57;;
70985;SDS011;58645;43.068;25.610;2023-04-24T04:53:21;24.48;;;15.15;;
70985;SDS011;58645;43.068;25.610;2023-04-24T04:55:48;23.15;;;14.13;;
70985;SDS011;58645;43.068;25.610;2023-04-24T05:00:45;18.45;;;9.75;;
70985;SDS011;58645;43.068;25.610;2023-04-24T05:03:38;15.07;;;8.52;;
70985;SDS011;58645;43.068;25.610;2023-04-24T05:06:10;12.20;;;6.43;;
70985;SDS011;58645;43.068;25.610;2023-04-24T05:08:44;8.85;;;4.90;;
70985;SDS011;58645;43.068;25.610;2023-04-24T05:11:14;10.07;;;4.57;;
70985;SDS011;58645;43.068;25.610;2023-04-24T05:13:49;9.10;;;5.15;;
70985;SDS011;58645;43.068;25.610;2023-04-24T05:16:33;7.80;;;4.32;;
70985;SDS011;58645;43.068;25.610;2023-04-24T05:19:04;6.80;;;4.90;;
70985;SDS011;58645;43.068;25.610;2023-04-24T05:21:30;12.32;;;4.55;;
70985;SDS011;58645;43.068;25.610;2023-04-24T05:23:56;7.55;;;3.83;;
70985;SDS011;58645;43.068;25.610;2023-04-24T05:26:22;7.93;;;3.75;;
70985;SDS011;58645;43.068;25.610;2023-04-24T05:28:50;6.43;;;3.65;;
70985;SDS011;58645;43.068;25.610;2023-04-24T05:31:16;7.05;;;4.03;;
70985;SDS011;58645;43.068;25.610;2023-04-24T05:33:43;8.07;;;4.72;;
70985;SDS011;58645;43.068;25.610;2023-04-24T05:36:09;8.82;;;5.10;;
70985;SDS011;58645;43.068;25.610;2023-04-24T05:38:40;5.60;;;3.83;;
70985;SDS011;58645;43.068;25.610;2023-04-24T05:41:09;8.93;;;4.32;;
70985;SDS011;58645;43.068;25.610;2023-04-24T05:43:49;6.13;;;4.10;;
70985;SDS011;58645;43.068;25.610;2023-04-24T05:46:19;5.32;;;3.45;;
70985;SDS011;58645;43.068;25.610;2023-04-24T05:49:03;7.80;;;3.30;;
70985;SDS011;58645;43.068;25.610;2023-04-24T05:51:30;6.97;;;4.13;;
70985;SDS011;58645;43.068;25.610;2023-04-24T05:53:56;4.78;;;2.92;;
70985;SDS011;58645;43.068;25.610;2023-04-24T05:56:22;5.68;;;3.45;;
70985;SDS011;58645;43.068;25.610;2023-04-24T06:01:14;5.18;;;3.28;;
70985;SDS011;58645;43.068;25.610;2023-04-24T06:03:41;8.38;;;5.63;;
70985;SDS011;58645;43.068;25.610;2023-04-24T06:06:13;6.25;;;3.90;;
70985;SDS011;58645;43.068;25.610;2023-04-24T06:08:47;11.30;;;6.10;;
70985;SDS011;58645;43.068;25.610;2023-04-24T06:11:13;7.90;;;4.75;;
70985;SDS011;58645;43.068;25.610;2023-04-24T06:16:05;11.85;;;8.38;;
70985;SDS011;58645;43.068;25.610;2023-04-24T06:18:30;11.48;;;6.43;;
70985;SDS011;58645;43.068;25.610;2023-04-24T06:20:56;10.43;;;7.20;;
70985;SDS011;58645;43.068;25.610;2023-04-24T06:23:22;9.75;;;7.80;;
70985;SDS011;58645;43.068;25.610;2023-04-24T06:25:54;11.85;;;6.63;;
70985;SDS011;58645;43.068;25.610;2023-04-24T06:28:20;13.10;;;8.55;;
70985;SDS011;58645;43.068;25.610;2023-04-24T06:35:51;21.92;;;14.95;;
70985;SDS011;58645;43.068;25.610;2023-04-24T06:41:05;20.42;;;12.20;;
70985;SDS011;58645;43.068;25.610;2023-04-24T06:43:31;12.00;;;9.48;;
70985;SDS011;58645;43.068;25.610;2023-04-24T06:45:58;9.63;;;5.18;;
70985;SDS011;58645;43.068;25.610;2023-04-24T06:48:24;11.05;;;7.28;;
70985;SDS011;58645;43.068;25.610;2023-04-24T06:50:50;11.07;;;7.15;;
70985;SDS011;58645;43.068;25.610;2023-04-24T06:53:17;11.15;;;7.57;;
70985;SDS011;58645;43.068;25.610;2023-04-24T06:55:43;8.70;;;5.75;;
70985;SDS011;58645;43.068;25.610;2023-04-24T06:58:11;7.88;;;4.90;;
70985;SDS011;58645;43.068;25.610;2023-04-24T07:00:37;9.75;;;5.50;;
70985;SDS011;58645;43.068;25.610;2023-04-24T07:05:48;4.35;;;2.97;;
70985;SDS011;58645;43.068;25.610;2023-04-24T07:08:14;4.60;;;2.58;;
70985;SDS011;58645;43.068;25.610;2023-04-24T07:10:42;5.68;;;3.70;;
70985;SDS011;58645;43.068;25.610;2023-04-24T07:13:08;6.55;;;3.30;;
70985;SDS011;58645;43.068;25.610;2023-04-24T07:15:36;5.38;;;3.45;;
70985;SDS011;58645;43.068;25.610;2023-04-24T07:18:02;7.22;;;4.00;;
70985;SDS011;58645;43.068;25.610;2023-04-24T07:20:28;4.72;;;2.65;;
70985;SDS011;58645;43.068;25.610;2023-04-24T07:22:54;7.72;;;4.57;;
70985;SDS011;58645;43.068;25.610;2023-04-24T07:25:20;7.88;;;4.82;;
70985;SDS011;58645;43.068;25.610;2023-04-24T07:27:46;4.45;;;2.83;;
70985;SDS011;58645;43.068;25.610;2023-04-24T07:30:13;7.93;;;3.63;;
70985;SDS011;58645;43.068;25.610;2023-04-24T07:32:39;5.28;;;3.00;;
70985;SDS011;58645;43.068;25.610;2023-04-24T07:35:05;5.22;;;3.33;;
70985;SDS011;58645;43.068;25.610;2023-04-24T07:37:31;5.35;;;4.03;;
70985;SDS011;58645;43.068;25.610;2023-04-24T07:39:57;5.53;;;2.60;;
70985;SDS011;58645;43.068;25.610;2023-04-24T07:42:23;7.43;;;3.67;;
70985;SDS011;58645;43.068;25.610;2023-04-24T07:44:49;5.70;;;3.65;;
70985;SDS011;58645;43.068;25.610;2023-04-24T07:47:16;4.53;;;2.70;;
70985;SDS011;58645;43.068;25.610;2023-04-24T07:49:42;5.90;;;3.38;;
70985;SDS011;58645;43.068;25.610;2023-04-24T07:52:08;7.25;;;3.75;;
70985;SDS011;58645;43.068;25.610;2023-04-24T07:54:35;6.35;;;3.00;;
70985;SDS011;58645;43.068;25.610;2023-04-24T07:57:04;9.32;;;3.67;;
70985;SDS011;58645;43.068;25.610;2023-04-24T07:59:33;5.85;;;3.55;;
70985;SDS011;58645;43.068;25.610;2023-04-24T08:01:59;4.13;;;3.40;;
70985;SDS011;58645;43.068;25.610;2023-04-24T08:04:26;4.78;;;3.72;;
70985;SDS011;58645;43.068;25.610;2023-04-24T08:09:18;8.80;;;3.67;;
70985;SDS011;58645;43.068;25.610;2023-04-24T08:14:10;7.78;;;3.85;;
70985;SDS011;58645;43.068;25.610;2023-04-24T08:16:45;8.23;;;4.13;;
70985;SDS011;58645;43.068;25.610;2023-04-24T08:19:15;6.38;;;3.15;;
70985;SDS011;58645;43.068;25.610;2023-04-24T08:24:08;5.90;;;3.25;;
70985;SDS011;58645;43.068;25.610;2023-04-24T08:26:34;4.95;;;3.88;;
70985;SDS011;58645;43.068;25.610;2023-04-24T08:32:16;4.75;;;3.80;;
70985;SDS011;58645;43.068;25.610;2023-04-24T08:34:42;7.47;;;3.50;;
70985;SDS011;58645;43.068;25.610;2023-04-24T08:39:34;7.68;;;4.18;;
70985;SDS011;58645;43.068;25.610;2023-04-24T08:44:31;5.70;;;3.70;;
70985;SDS011;58645;43.068;25.610;2023-04-24T08:46:58;7.95;;;4.50;;
70985;SDS011;58645;43.068;25.610;2023-04-24T08:49:25;6.15;;;3.55;;
70985;SDS011;58645;43.068;25.610;2023-04-24T08:51:53;9.95;;;3.70;;
70985;SDS011;58645;43.068;25.610;2023-04-24T08:54:19;7.15;;;4.65;;
70985;SDS011;58645;43.068;25.610;2023-04-24T08:56:45;5.97;;;4.53;;
70985;SDS011;58645;43.068;25.610;2023-04-24T08:59:14;6.80;;;4.00;;
70985;SDS011;58645;43.068;25.610;2023-04-24T09:01:40;6.93;;;4.78;;
70985;SDS011;58645;43.068;25.610;2023-04-24T09:04:08;6.40;;;4.35;;
70985;SDS011;58645;43.068;25.610;2023-04-24T09:06:38;5.70;;;3.65;;
70985;SDS011;58645;43.068;25.610;2023-04-24T09:09:04;6.68;;;4.20;;
70985;SDS011;58645;43.068;25.610;2023-04-24T09:11:31;6.07;;;4.25;;
70985;SDS011;58645;43.068;25.610;2023-04-24T09:13:58;6.95;;;4.40;;
70985;SDS011;58645;43.068;25.610;2023-04-24T09:16:28;5.68;;;3.25;;
70985;SDS011;58645;43.068;25.610;2023-04-24T09:19:00;7.80;;;4.18;;
70985;SDS011;58645;43.068;25.610;2023-04-24T09:21:26;5.80;;;4.47;;
70985;SDS011;58645;43.068;25.610;2023-04-24T09:24:01;6.75;;;3.70;;
70985;SDS011;58645;43.068;25.610;2023-04-24T09:26:37;6.13;;;3.97;;
70985;SDS011;58645;43.068;25.610;2023-04-24T09:29:25;6.30;;;3.45;;
70985;SDS011;58645;43.068;25.610;2023-04-24T09:31:59;6.90;;;3.90;;
70985;SDS011;58645;43.068;25.610;2023-04-24T09:34:43;4.90;;;2.60;;
70985;SDS011;58645;43.068;25.610;2023-04-24T09:37:20;4.80;;;3.00;;
70985;SDS011;58645;43.068;25.610;2023-04-24T09:42:52;3.92;;;2.78;;
70985;SDS011;58645;43.068;25.610;2023-04-24T09:45:35;4.00;;;2.95;;
70985;SDS011;58645;43.068;25.610;2023-04-24T09:48:05;3.35;;;2.45;;
70985;SDS011;58645;43.068;25.610;2023-04-24T09:50:33;4.97;;;3.33;;
70985;SDS011;58645;43.068;25.610;2023-04-24T09:53:03;3.70;;;2.90;;
70985;SDS011;58645;43.068;25.610;2023-04-24T09:55:30;4.53;;;3.67;;
70985;SDS011;58645;43.068;25.610;2023-04-24T09:57:57;8.32;;;4.25;;
70985;SDS011;58645;43.068;25.610;2023-04-24T10:05:32;4.50;;;3.40;;
70985;SDS011;58645;43.068;25.610;2023-04-24T10:08:03;8.50;;;3.97;;
70985;SDS011;58645;43.068;25.610;2023-04-24T10:10:45;10.27;;;5.25;;
70985;SDS011;58645;43.068;25.610;2023-04-24T10:13:12;12.30;;;5.40;;
70985;SDS011;58645;43.068;25.610;2023-04-24T10:15:40;6.38;;;3.92;;
70985;SDS011;58645;43.068;25.610;2023-04-24T10:18:07;13.20;;;6.75;;
70985;SDS011;58645;43.068;25.610;2023-04-24T10:20:35;12.82;;;5.82;;
70985;SDS011;58645;43.068;25.610;2023-04-24T10:23:05;10.52;;;5.35;;
70985;SDS011;58645;43.068;25.610;2023-04-24T10:25:32;5.35;;;3.95;;
70985;SDS011;58645;43.068;25.610;2023-04-24T10:27:59;4.90;;;3.17;;
70985;SDS011;58645;43.068;25.610;2023-04-24T10:30:27;4.88;;;3.05;;
70985;SDS011;58645;43.068;25.610;2023-04-24T10:33:04;4.13;;;2.95;;
70985;SDS011;58645;43.068;25.610;2023-04-24T10:35:32;3.70;;;3.08;;
70985;SDS011;58645;43.068;25.610;2023-04-24T10:38:08;3.60;;;2.63;;
70985;SDS011;58645;43.068;25.610;2023-04-24T10:40:37;5.10;;;3.42;;
70985;SDS011;58645;43.068;25.610;2023-04-24T10:43:07;6.90;;;4.05;;
70985;SDS011;58645;43.068;25.610;2023-04-24T10:45:36;4.47;;;3.05;;
70985;SDS011;58645;43.068;25.610;2023-04-24T10:48:03;3.30;;;2.75;;
70985;SDS011;58645;43.068;25.610;2023-04-24T10:50:48;6.53;;;4.15;;
70985;SDS011;58645;43.068;25.610;2023-04-24T10:53:22;5.82;;;3.72;;
70985;SDS011;58645;43.068;25.610;2023-04-24T10:58:16;4.47;;;3.42;;
70985;SDS011;58645;43.068;25.610;2023-04-24T11:00:55;5.53;;;3.50;;
70985;SDS011;58645;43.068;25.610;2023-04-24T11:03:32;6.30;;;4.07;;
70985;SDS011;58645;43.068;25.610;2023-04-24T11:06:06;5.60;;;3.20;;
70985;SDS011;58645;43.068;25.610;2023-04-24T11:08:42;5.15;;;3.45;;
70985;SDS011;58645;43.068;25.610;2023-04-24T11:16:29;4.43;;;3.55;;
70985;SDS011;58645;43.068;25.610;2023-04-24T11:27:06;5.82;;;3.88;;
70985;SDS011;58645;43.068;25.610;2023-04-24T11:29:39;5.18;;;3.40;;
70985;SDS011;58645;43.068;25.610;2023-04-24T11:34:52;4.90;;;3.22;;
70985;SDS011;58645;43.068;25.610;2023-04-24T11:37:42;5.47;;;3.63;;
70985;SDS011;58645;43.068;25.610;2023-04-24T11:40:14;5.47;;;3.80;;
70985;SDS011;58645;43.068;25.610;2023-04-24T11:42:41;6.72;;;3.65;;
70985;SDS011;58645;43.068;25.610;2023-04-24T11:47:40;5.88;;;3.45;;
70985;SDS011;58645;43.068;25.610;2023-04-24T11:50:08;4.35;;;2.55;;
70985;SDS011;58645;43.068;25.610;2023-04-24T11:52:42;8.60;;;3.55;;
70985;SDS011;58645;43.068;25.610;2023-04-24T11:57:39;4.82;;;3.22;;
70985;SDS011;58645;43.068;25.610;2023-04-24T12:00:15;6.75;;;3.40;;
70985;SDS011;58645;43.068;25.610;2023-04-24T12:02:46;5.25;;;3.47;;
70985;SDS011;58645;43.068;25.610;2023-04-24T12:05:25;5.78;;;3.90;;
70985;SDS011;58645;43.068;25.610;2023-04-24T12:07:52;5.97;;;3.20;;
70985;SDS011;58645;43.068;25.610;2023-04-24T12:10:22;5.05;;;3.70;;
70985;SDS011;58645;43.068;25.610;2023-04-24T12:12:49;5.30;;;2.70;;
70985;SDS011;58645;43.068;25.610;2023-04-24T12:15:16;5.10;;;3.42;;
70985;SDS011;58645;43.068;25.610;2023-04-24T12:17:43;3.35;;;2.85;;
70985;SDS011;58645;43.068;25.610;2023-04-24T12:20:09;4.53;;;3.65;;
70985;SDS011;58645;43.068;25.610;2023-04-24T12:22:47;4.80;;;3.03;;
70985;SDS011;58645;43.068;25.610;2023-04-24T12:25:19;5.45;;;3.42;;
70985;SDS011;58645;43.068;25.610;2023-04-24T12:27:51;3.88;;;2.88;;
70985;SDS011;58645;43.068;25.610;2023-04-24T12:30:18;6.07;;;3.80;;
70985;SDS011;58645;43.068;25.610;2023-04-24T12:32:45;4.28;;;3.03;;
70985;SDS011;58645;43.068;25.610;2023-04-24T12:35:22;4.97;;;3.30;;
70985;SDS011;58645;43.068;25.610;2023-04-24T12:37:49;5.18;;;3.53;;
70985;SDS011;58645;43.068;25.610;2023-04-24T12:40:16;5.70;;;3.75;;
70985;SDS011;58645;43.068;25.610;2023-04-24T12:42:47;5.95;;;3.50;;
70985;SDS011;58645;43.068;25.610;2023-04-24T12:45:15;4.25;;;3.45;;
70985;SDS011;58645;43.068;25.610;2023-04-24T12:47:42;3.25;;;2.47;;
70985;SDS011;58645;43.068;25.610;2023-04-24T12:50:09;4.60;;;2.60;;
70985;SDS011;58645;43.068;25.610;2023-04-24T12:52:37;3.20;;;2.88;;
70985;SDS011;58645;43.068;25.610;2023-04-24T12:55:06;4.18;;;2.33;;
70985;SDS011;58645;43.068;25.610;2023-04-24T12:57:34;3.90;;;2.13;;
70985;SDS011;58645;43.068;25.610;2023-04-24T13:00:02;3.55;;;2.67;;
70985;SDS011;58645;43.068;25.610;2023-04-24T13:02:30;3.20;;;2.90;;
70985;SDS011;58645;43.068;25.610;2023-04-24T13:07:22;3.38;;;2.72;;
70985;SDS011;58645;43.068;25.610;2023-04-24T13:12:14;4.10;;;2.60;;
70985;SDS011;58645;43.068;25.610;2023-04-24T13:17:09;3.85;;;3.17;;
70985;SDS011;58645;43.068;25.610;2023-04-24T13:19:37;3.72;;;3.33;;
70985;SDS011;58645;43.068;25.610;2023-04-24T13:22:04;11.95;;;6.43;;
70985;SDS011;58645;43.068;25.610;2023-04-24T13:24:30;8.05;;;5.30;;
70985;SDS011;58645;43.068;25.610;2023-04-24T13:26:57;5.40;;;3.83;;
70985;SDS011;58645;43.068;25.610;2023-04-24T13:29:23;8.70;;;4.88;;
70985;SDS011;58645;43.068;25.610;2023-04-24T13:31:50;6.30;;;4.40;;
70985;SDS011;58645;43.068;25.610;2023-04-24T13:34:16;9.40;;;4.60;;
70985;SDS011;58645;43.068;25.610;2023-04-24T13:36:43;6.53;;;4.45;;
70985;SDS011;58645;43.068;25.610;2023-04-24T13:39:09;6.13;;;4.40;;
70985;SDS011;58645;43.068;25.610;2023-04-24T13:41:35;6.38;;;4.13;;
70985;SDS011;58645;43.068;25.610;2023-04-24T13:46:40;6.13;;;4.13;;
70985;SDS011;58645;43.068;25.610;2023-04-24T13:49:09;6.65;;;4.55;;
70985;SDS011;58645;43.068;25.610;2023-04-24T13:54:00;8.25;;;3.95;;
70985;SDS011;58645;43.068;25.610;2023-04-24T13:56:26;6.22;;;4.10;;
70985;SDS011;58645;43.068;25.610;2023-04-24T13:58:52;5.97;;;4.40;;
70985;SDS011;58645;43.068;25.610;2023-04-24T14:01:21;4.32;;;3.90;;
70985;SDS011;58645;43.068;25.610;2023-04-24T14:03:53;6.53;;;3.85;;
70985;SDS011;58645;43.068;25.610;2023-04-24T14:06:19;7.68;;;4.25;;
70985;SDS011;58645;43.068;25.610;2023-04-24T14:08:45;7.82;;;4.43;;
70985;SDS011;58645;43.068;25.610;2023-04-24T14:11:11;5.20;;;4.30;;
70985;SDS011;58645;43.068;25.610;2023-04-24T14:13:37;5.60;;;4.20;;
70985;SDS011;58645;43.068;25.610;2023-04-24T14:18:29;11.05;;;4.50;;
70985;SDS011;58645;43.068;25.610;2023-04-24T14:20:55;5.90;;;3.97;;
70985;SDS011;58645;43.068;25.610;2023-04-24T14:23:21;5.70;;;4.43;;
70985;SDS011;58645;43.068;25.610;2023-04-24T14:25:47;6.60;;;4.32;;
70985;SDS011;58645;43.068;25.610;2023-04-24T14:28:16;9.52;;;5.38;;
70985;SDS011;58645;43.068;25.610;2023-04-24T14:30:43;10.73;;;5.10;;
70985;SDS011;58645;43.068;25.610;2023-04-24T14:33:08;5.90;;;4.32;;
70985;SDS011;58645;43.068;25.610;2023-04-24T14:35:35;9.95;;;4.80;;
70985;SDS011;58645;43.068;25.610;2023-04-24T14:38:01;8.23;;;5.85;;
70985;SDS011;58645;43.068;25.610;2023-04-24T14:40:27;4.60;;;4.10;;
70985;SDS011;58645;43.068;25.610;2023-04-24T14:42:53;9.48;;;5.35;;
70985;SDS011;58645;43.068;25.610;2023-04-24T14:45:18;8.77;;;5.57;;
70985;SDS011;58645;43.068;25.610;2023-04-24T14:47:44;8.07;;;5.18;;
70985;SDS011;58645;43.068;25.610;2023-04-24T14:50:10;7.32;;;5.47;;
70985;SDS011;58645;43.068;25.610;2023-04-24T14:52:37;10.32;;;6.00;;
70985;SDS011;58645;43.068;25.610;2023-04-24T14:57:29;9.70;;;6.90;;
70985;SDS011;58645;43.068;25.610;2023-04-24T14:59:55;10.18;;;4.97;;
70985;SDS011;58645;43.068;25.610;2023-04-24T15:02:21;9.38;;;5.60;;
70985;SDS011;58645;43.068;25.610;2023-04-24T15:04:47;8.23;;;6.35;;
70985;SDS011;58645;43.068;25.610;2023-04-24T15:07:12;10.63;;;5.40;;
70985;SDS011;58645;43.068;25.610;2023-04-24T15:09:38;8.65;;;5.97;;
70985;SDS011;58645;43.068;25.610;2023-04-24T15:12:04;10.35;;;6.57;;
70985;SDS011;58645;43.068;25.610;2023-04-24T15:14:30;11.88;;;5.50;;
70985;SDS011;58645;43.068;25.610;2023-04-24T15:16:56;9.98;;;5.13;;
70985;SDS011;58645;43.068;25.610;2023-04-24T15:19:22;6.93;;;5.32;;
70985;SDS011;58645;43.068;25.610;2023-04-24T15:21:47;9.15;;;5.18;;
70985;SDS011;58645;43.068;25.610;2023-04-24T15:24:13;7.45;;;5.22;;
70985;SDS011;58645;43.068;25.610;2023-04-24T15:26:39;6.93;;;5.47;;
70985;SDS011;58645;43.068;25.610;2023-04-24T15:29:05;10.65;;;5.22;;
70985;SDS011;58645;43.068;25.610;2023-04-24T15:31:31;10.23;;;5.90;;
70985;SDS011;58645;43.068;25.610;2023-04-24T15:33:56;12.55;;;5.38;;
70985;SDS011;58645;43.068;25.610;2023-04-24T15:36:22;8.15;;;5.38;;
70985;SDS011;58645;43.068;25.610;2023-04-24T15:38:48;8.05;;;5.68;;
70985;SDS011;58645;43.068;25.610;2023-04-24T15:41:15;8.05;;;6.40;;
70985;SDS011;58645;43.068;25.610;2023-04-24T15:43:40;7.07;;;5.97;;
70985;SDS011;58645;43.068;25.610;2023-04-24T15:46:12;11.68;;;6.63;;
70985;SDS011;58645;43.068;25.610;2023-04-24T15:48:38;8.95;;;4.97;;
70985;SDS011;58645;43.068;25.610;2023-04-24T15:51:06;9.77;;;6.78;;
70985;SDS011;58645;43.068;25.610;2023-04-24T15:53:32;15.55;;;8.88;;
70985;SDS011;58645;43.068;25.610;2023-04-24T15:55:57;15.70;;;8.63;;
70985;SDS011;58645;43.068;25.610;2023-04-24T15:58:24;13.27;;;7.60;;